SSV Iolair — V7IS9 — position and weather

sailwx.info

Track history (hours):
 
Tides and Currents Weather Stations Pressure Air Temp Water Temp Dewpoint Dewpoint Depression Visibility Wind Speed Wind Dir Waves Ship Positions

SSV Iolair

Last reported at 2017-Oct-15 16:27 UTC. Time now 2017-Nov-18 19:41 UTC.
Position N 19°03' W 095°20'.
Warning: this ship's position is 34 days out of date.

Length 102 m; draft 7.5 m.

Type: Cargo ship. MMSI: 538002446.

Date/timePositionNaut miles runAvg speedWind from/ knotsBaromVisibWave heightAir tempDewpointWater temp
2017-Oct-15 16:27N 19°03' W 095°20'0 0.0
2017-Oct-15 15:57N 19°03' W 095°20'1 0.7
2017-Oct-15 14:55N 19°04' W 095°21'1 0.5
2017-Oct-15 13:54N 19°04' W 095°21'0 0.1
2017-Oct-15 13:29N 19°04' W 095°21'1 0.4
2017-Oct-15 11:22N 19°05' W 095°22'0 0.1
2017-Oct-15 10:58N 19°05' W 095°22'7 0.6
2017-Oct-14 23:17N 19°06' W 095°29'3 1.9
2017-Oct-14 21:44N 19°07' W 095°32'3 2.6
2017-Oct-14 20:46N 19°08' W 095°34'1 2.1
2017-Oct-14 20:25N 19°09' W 095°35'0 0.6
2017-Oct-14 20:00N 19°09' W 095°35'6 5.7
2017-Oct-14 19:01N 19°11' W 095°41'0 9.7
2017-Oct-14 19:00N 19°11' W 095°41'4 9.0
2017-Oct-14 18:30N 19°12' W 095°45'4 8.3
2017-Oct-14 18:00N 19°12' W 095°50'4 8.0
2017-Oct-14 17:30N 19°12' W 095°54'3 6.9
2017-Oct-14 17:00N 19°11' W 095°58'2 4.7
2017-Oct-14 16:30N 19°11' W 096°00'3 5.3
2017-Oct-14 16:00N 19°11' W 096°03'2 3.1
2017-Oct-14 15:30N 19°12' W 096°04'1 1.4
2017-Oct-14 15:00N 19°12' W 096°05'1 2.8
2017-Oct-14 14:30N 19°12' W 096°07'1 1.8
2017-Oct-14 14:00N 19°12' W 096°07'0 0.3
2017-Oct-14 13:30N 19°12' W 096°08'0 0.1
2017-Oct-14 13:00N 19°12' W 096°08'0 0.0
2017-Oct-14 12:30N 19°12' W 096°08'0 0.0
2017-Oct-14 12:00N 19°12' W 096°08'0 0.0
2017-Oct-14 11:30N 19°12' W 096°08'0 0.0
2017-Oct-14 11:00N 19°12' W 096°08'0 0.0
2017-Oct-14 10:30N 19°12' W 096°08'0 0.0
2017-Oct-14 10:00N 19°12' W 096°08'0 0.0
2017-Oct-14 09:30N 19°12' W 096°08'0 0.0
2017-Oct-14 09:00N 19°12' W 096°08'0 0.0
2017-Oct-14 08:30N 19°12' W 096°08'0 0.0
2017-Oct-14 08:00N 19°12' W 096°08'0 0.0
2017-Oct-14 07:30N 19°12' W 096°08'0 0.0
2017-Oct-14 07:00N 19°12' W 096°08'0 0.0
2017-Oct-14 06:30N 19°12' W 096°08'0 0.0
2017-Oct-14 06:00N 19°12' W 096°08'0 0.0
2017-Oct-14 05:30N 19°12' W 096°08'0 0.0
2017-Oct-14 05:00N 19°12' W 096°08'0 0.0
2017-Oct-14 04:30N 19°12' W 096°08'0 0.0
2017-Oct-14 04:00N 19°12' W 096°08'0 0.0
2017-Oct-14 03:30N 19°12' W 096°08'0 0.0
2017-Oct-14 03:00N 19°12' W 096°08'0 0.0
2017-Oct-14 02:30N 19°12' W 096°08'0 0.0
2017-Oct-14 02:00N 19°12' W 096°08'0 0.0
2017-Oct-14 01:30N 19°12' W 096°08'0 0.0
2017-Oct-14 01:00N 19°12' W 096°08'0 0.0
2017-Oct-14 00:30N 19°12' W 096°08'0 0.0
2017-Oct-14 00:00N 19°12' W 096°08'0 0.0
2017-Oct-13 23:30N 19°12' W 096°08'0 0.0
2017-Oct-13 23:00N 19°12' W 096°08'0 0.0
2017-Oct-13 22:30N 19°12' W 096°08'0 0.0
2017-Oct-13 22:00N 19°12' W 096°08'0 0.0
2017-Oct-13 21:30N 19°12' W 096°08'0 0.0
2017-Oct-13 21:00N 19°12' W 096°08'0 0.0
2017-Oct-13 20:30N 19°12' W 096°08'0 0.0
2017-Oct-13 20:00N 19°12' W 096°08'0 0.0
2017-Oct-13 19:30N 19°12' W 096°08'0 0.0
2017-Oct-13 19:00N 19°12' W 096°08'0 0.0
2017-Oct-13 18:30N 19°12' W 096°08'0 0.0
2017-Oct-13 18:00N 19°12' W 096°08'0 0.0
2017-Oct-13 17:30N 19°12' W 096°08'0 0.0
2017-Oct-13 17:00N 19°12' W 096°08'0 0.0
2017-Oct-13 16:30N 19°12' W 096°08'0 0.0
2017-Oct-13 16:00N 19°12' W 096°08'0 0.0
2017-Oct-13 15:30N 19°12' W 096°08'0 0.0
2017-Oct-13 15:00N 19°12' W 096°08'0 0.0
2017-Oct-13 14:30N 19°12' W 096°08'0 0.0
2017-Oct-13 14:00N 19°12' W 096°08'0 0.0
2017-Oct-13 13:30N 19°12' W 096°08'0 0.0
2017-Oct-13 13:00N 19°12' W 096°08'0 0.0
2017-Oct-13 12:30N 19°12' W 096°08'0 0.0
2017-Oct-13 12:00N 19°12' W 096°08'0 0.0
2017-Oct-13 11:30N 19°12' W 096°08'0 0.0
2017-Oct-13 11:00N 19°12' W 096°08'0 0.0
2017-Oct-13 10:30N 19°12' W 096°08'0 0.0
2017-Oct-13 10:00N 19°12' W 096°08'0 0.0
2017-Oct-13 09:30N 19°12' W 096°08'0 0.0
2017-Oct-13 09:00N 19°12' W 096°08'0 0.0
2017-Oct-13 08:30N 19°12' W 096°08'0 0.0
2017-Oct-13 08:00N 19°12' W 096°08'0 0.0
2017-Oct-13 07:30N 19°12' W 096°08'0 0.0
2017-Oct-13 07:00N 19°12' W 096°08'0 0.0
2017-Oct-13 06:30N 19°12' W 096°08'0 0.0
2017-Oct-13 06:00N 19°12' W 096°08'0 0.0
2017-Oct-13 05:30N 19°12' W 096°08'0 0.0
2017-Oct-13 05:00N 19°12' W 096°08'0 0.0
2017-Oct-13 04:30N 19°12' W 096°08'0 0.0
2017-Oct-13 04:00N 19°12' W 096°08'0 0.0
2017-Oct-13 03:30N 19°12' W 096°08'0 0.0
2017-Oct-13 03:00N 19°12' W 096°08'0 0.0
2017-Oct-13 02:30N 19°12' W 096°08'0 0.0
2017-Oct-13 02:00N 19°12' W 096°08'0 0.0
2017-Oct-13 01:30N 19°12' W 096°08'0 0.0
2017-Oct-13 01:00N 19°12' W 096°08'0 0.0
2017-Oct-13 00:30N 19°12' W 096°08'0 0.0
2017-Oct-13 00:00N 19°12' W 096°08'0 0.0
2017-Oct-12 23:30N 19°12' W 096°08'0 0.0
2017-Oct-12 23:00N 19°12' W 096°08'0 0.0
2017-Oct-12 22:30N 19°12' W 096°08'0 0.0
2017-Oct-12 22:00N 19°12' W 096°08'0 0.0
2017-Oct-12 21:30N 19°12' W 096°08'0 0.0
2017-Oct-12 21:00N 19°12' W 096°08'0 0.0
2017-Oct-12 20:30N 19°12' W 096°08'0 0.0
2017-Oct-12 20:00N 19°12' W 096°08'0 0.0
2017-Oct-12 19:30N 19°12' W 096°08'0 0.0
2017-Oct-12 19:00N 19°12' W 096°08'0 0.0
2017-Oct-12 18:30N 19°12' W 096°08'0 0.0
2017-Oct-12 18:00N 19°12' W 096°08'0 0.0
2017-Oct-12 17:30N 19°12' W 096°08'0 0.0
2017-Oct-12 17:00N 19°12' W 096°08'0 0.0
2017-Oct-12 16:30N 19°12' W 096°08'0 0.0
2017-Oct-12 16:00N 19°12' W 096°08'0 0.0
2017-Oct-12 15:30N 19°12' W 096°08'0 0.0
2017-Oct-12 15:00N 19°12' W 096°08'0 0.0
2017-Oct-12 14:30N 19°12' W 096°08'0 0.0
2017-Oct-12 14:00N 19°12' W 096°08'0 0.0
2017-Oct-12 13:30N 19°12' W 096°08'0 0.0
2017-Oct-12 13:00N 19°12' W 096°08'0 0.0
2017-Oct-12 12:30N 19°12' W 096°08'0 0.0
2017-Oct-12 12:00N 19°12' W 096°08'0 0.0
2017-Oct-12 11:30N 19°12' W 096°08'0 0.0
2017-Oct-12 11:00N 19°12' W 096°08'0 0.0
2017-Oct-12 10:30N 19°12' W 096°08'0 0.0
2017-Oct-12 10:00N 19°12' W 096°08'0 0.0
2017-Oct-12 09:30N 19°12' W 096°08'0 0.0
2017-Oct-12 09:00N 19°12' W 096°08'0 0.0
2017-Oct-12 08:30N 19°12' W 096°08'0 0.0
2017-Oct-12 08:00N 19°12' W 096°08'0 0.0
2017-Oct-12 07:30N 19°12' W 096°08'0 0.0
2017-Oct-12 07:00N 19°12' W 096°08'0 0.0
2017-Oct-12 06:30N 19°12' W 096°08'0 0.0
2017-Oct-12 06:00N 19°12' W 096°08'0 0.0
2017-Oct-12 05:30N 19°12' W 096°08'0 0.0
2017-Oct-12 05:00N 19°12' W 096°08'0 0.0
2017-Oct-12 04:30N 19°12' W 096°08'0 0.0
2017-Oct-12 04:00N 19°12' W 096°08'0 0.0
2017-Oct-12 03:30N 19°12' W 096°08'0 0.0
2017-Oct-12 03:00N 19°12' W 096°08'0 0.0
2017-Oct-12 02:30N 19°12' W 096°08'0 0.0
2017-Oct-12 02:00N 19°12' W 096°08'0 0.0
2017-Oct-12 01:30N 19°12' W 096°08'0 0.0
2017-Oct-12 01:00N 19°12' W 096°08'0 0.0
2017-Oct-12 00:30N 19°12' W 096°08'0 0.0
2017-Oct-12 00:00N 19°12' W 096°08'0 0.0
2017-Oct-11 23:30N 19°12' W 096°08'0 0.0
2017-Oct-11 23:00N 19°12' W 096°08'0 0.0
2017-Oct-11 22:30N 19°12' W 096°08'0 0.0
2017-Oct-11 22:00N 19°12' W 096°08'0 0.0
2017-Oct-11 21:30N 19°12' W 096°08'0 0.0
2017-Oct-11 21:00N 19°12' W 096°08'0 0.0
2017-Oct-11 20:30N 19°12' W 096°08'0 0.0
2017-Oct-11 20:00N 19°12' W 096°08'0 0.0
2017-Oct-11 19:30N 19°12' W 096°08'0 0.0
2017-Oct-11 19:00N 19°12' W 096°08'0 0.0
2017-Oct-11 18:30N 19°12' W 096°08'0 0.0
2017-Oct-11 18:00N 19°12' W 096°08'0 0.0
2017-Oct-11 17:30N 19°12' W 096°08'0 0.0
2017-Oct-11 17:00N 19°12' W 096°08'0 0.0
2017-Oct-11 00:00N 19°12' W 096°08'0 0.0
2017-Oct-10 23:30N 19°12' W 096°08'0 0.0
2017-Oct-10 23:00N 19°12' W 096°08'0 0.0
2017-Oct-10 22:30N 19°12' W 096°08'0 0.0
2017-Oct-10 22:00N 19°12' W 096°08'0 0.0
2017-Oct-10 21:30N 19°12' W 096°08'0 0.0
2017-Oct-10 21:00N 19°12' W 096°08'0 0.0
2017-Oct-10 20:30N 19°12' W 096°08'0 0.0
2017-Oct-10 20:00N 19°12' W 096°08'0 0.0
2017-Oct-10 19:30N 19°12' W 096°08'0 0.0
2017-Oct-10 19:00N 19°12' W 096°08'0 0.0
2017-Oct-10 18:30N 19°12' W 096°08'0 0.0
2017-Oct-10 18:00N 19°12' W 096°08'0 0.0
2017-Oct-10 17:30N 19°12' W 096°08'0 0.0
2017-Oct-10 17:00N 19°12' W 096°08'0 0.0
2017-Oct-10 16:30N 19°12' W 096°08'0 0.0
2017-Oct-10 16:00N 19°12' W 096°08'0 0.0
2017-Oct-10 15:30N 19°12' W 096°08'0 0.0
2017-Oct-10 15:00N 19°12' W 096°08'0 0.0
2017-Oct-10 14:00N 19°12' W 096°08'0 0.0
2017-Oct-10 13:30N 19°12' W 096°08'0 0.0
2017-Oct-10 13:00N 19°12' W 096°08'0 0.0
2017-Oct-10 12:30N 19°12' W 096°08'0 0.0
2017-Oct-10 12:00N 19°12' W 096°08'0 0.0
2017-Oct-10 11:30N 19°12' W 096°08'0 0.0
2017-Oct-10 11:00N 19°12' W 096°08'0 0.0
2017-Oct-10 10:30N 19°12' W 096°08'0 0.0
2017-Oct-10 10:00N 19°12' W 096°08'0 0.0
2017-Oct-10 09:30N 19°12' W 096°08'0 0.0
2017-Oct-10 09:00N 19°12' W 096°08'0 0.0
2017-Oct-10 08:30N 19°12' W 096°08'0 0.0
2017-Oct-10 08:00N 19°12' W 096°08'0 0.0
2017-Oct-10 07:30N 19°12' W 096°08'0 0.0
2017-Oct-10 07:00N 19°12' W 096°08'0 0.0
2017-Oct-10 06:30N 19°12' W 096°08'0 0.0
2017-Oct-10 06:00N 19°12' W 096°08'0 0.0
2017-Oct-10 05:30N 19°12' W 096°08'0 0.0
2017-Oct-10 05:00N 19°12' W 096°08'0 0.0
2017-Oct-10 04:30N 19°12' W 096°08'0 0.0
2017-Oct-10 04:00N 19°12' W 096°08'0 0.0
2017-Oct-10 03:30N 19°12' W 096°08'0 0.0
2017-Oct-10 03:00N 19°12' W 096°08'0 0.0
2017-Oct-10 02:30N 19°12' W 096°08'0 0.0
2017-Oct-10 02:00N 19°12' W 096°08'0 0.0
2017-Oct-10 01:30N 19°12' W 096°08'0 0.0
2017-Oct-10 01:00N 19°12' W 096°08'0 0.0
2017-Oct-10 00:30N 19°12' W 096°08'0 0.0
2017-Oct-10 00:00N 19°12' W 096°08'0 0.0
2017-Oct-09 23:30N 19°12' W 096°08'0 0.0
2017-Oct-09 23:00N 19°12' W 096°08'0 0.0
2017-Oct-09 22:30N 19°12' W 096°08'0 0.0
2017-Oct-09 22:00N 19°12' W 096°08'0 0.0
2017-Oct-09 21:30N 19°12' W 096°08'0 0.0
2017-Oct-09 21:00N 19°12' W 096°08'0 0.0
2017-Oct-09 20:30N 19°12' W 096°08'0 0.0
2017-Oct-09 20:00N 19°12' W 096°08'0 0.0
2017-Oct-09 19:30N 19°12' W 096°08'0 0.0
2017-Oct-09 19:00N 19°12' W 096°08'0 0.0
2017-Oct-09 18:30N 19°12' W 096°08'0 0.0
2017-Oct-09 18:00N 19°12' W 096°08'0 0.0
2017-Oct-09 17:30N 19°12' W 096°08'0 0.0
2017-Oct-09 17:00N 19°12' W 096°08'0 0.0
2017-Oct-09 16:30N 19°12' W 096°08'0 0.0
2017-Oct-09 16:00N 19°12' W 096°08'0 0.0
2017-Oct-09 15:30N 19°12' W 096°08'0 0.0
2017-Oct-09 15:00N 19°12' W 096°08'0 0.0
2017-Oct-09 14:30N 19°12' W 096°08'0 0.0
2017-Oct-09 14:00N 19°12' W 096°08'0 0.0
2017-Oct-09 13:30N 19°12' W 096°08'0 0.0
2017-Oct-09 13:00N 19°12' W 096°08'0 0.0
2017-Oct-09 12:30N 19°12' W 096°08'0 0.0
2017-Oct-09 12:00N 19°12' W 096°08'0 0.0
2017-Oct-09 11:30N 19°12' W 096°08'0 0.0
2017-Oct-09 11:00N 19°12' W 096°08'0 0.0
2017-Oct-09 10:30N 19°12' W 096°08'0 0.0
2017-Oct-09 10:00N 19°12' W 096°08'0 0.0
2017-Oct-09 09:30N 19°12' W 096°08'0 0.0
2017-Oct-09 09:00N 19°12' W 096°08'0 0.0
2017-Oct-09 08:30N 19°12' W 096°08'0 0.0
2017-Oct-09 08:00N 19°12' W 096°08'0 0.0
2017-Oct-09 07:30N 19°12' W 096°08'0 0.0
2017-Oct-09 07:00N 19°12' W 096°08'0 0.0
2017-Oct-09 06:30N 19°12' W 096°08'0 0.0
2017-Oct-09 06:00N 19°12' W 096°08'0 0.0
2017-Oct-09 05:30N 19°12' W 096°08'0 0.0
2017-Oct-09 05:00N 19°12' W 096°08'0 0.0
2017-Oct-09 04:30N 19°12' W 096°08'0 0.0
2017-Oct-09 04:00N 19°12' W 096°08'0 0.0
2017-Oct-09 03:30N 19°12' W 096°08'0 0.0
2017-Oct-09 03:00N 19°12' W 096°08'0 0.0
2017-Oct-09 02:30N 19°12' W 096°08'0 0.0
2017-Oct-09 02:00N 19°12' W 096°08'0 0.0
2017-Oct-09 01:30N 19°12' W 096°08'0 0.0
2017-Oct-09 01:00N 19°12' W 096°08'0 0.0
2017-Oct-09 00:30N 19°12' W 096°08'0 0.0
2017-Oct-09 00:00N 19°12' W 096°08'0 0.0
2017-Oct-08 23:30N 19°12' W 096°08'0 0.0
2017-Oct-08 23:00N 19°12' W 096°08'0 0.0
2017-Oct-08 22:30N 19°12' W 096°08'0 0.0
2017-Oct-08 22:00N 19°12' W 096°08'0 0.0
2017-Oct-08 21:30N 19°12' W 096°08'0 0.0
2017-Oct-08 21:00N 19°12' W 096°08'0 0.0
2017-Oct-08 20:30N 19°12' W 096°08'0 0.0
2017-Oct-08 20:00N 19°12' W 096°08'0 0.0
2017-Oct-08 19:30N 19°12' W 096°08'0 0.0
2017-Oct-08 19:00N 19°12' W 096°08'0 0.0
2017-Oct-08 18:30N 19°12' W 096°08'0 0.0
2017-Oct-08 18:00N 19°12' W 096°08'0 0.0
2017-Oct-08 17:30N 19°12' W 096°08'0 0.0
2017-Oct-08 17:00N 19°12' W 096°08'0 0.0
2017-Oct-08 16:30N 19°12' W 096°08'0 0.0
2017-Oct-08 16:00N 19°12' W 096°08'0 0.0
2017-Oct-08 15:30N 19°12' W 096°08'0 0.0
2017-Oct-08 15:00N 19°12' W 096°08'0 0.0
2017-Oct-08 14:30N 19°12' W 096°08'0 0.0
2017-Oct-08 14:00N 19°12' W 096°08'0 0.0
2017-Oct-08 13:30N 19°12' W 096°08'0 0.0
2017-Oct-08 13:00N 19°12' W 096°08'0 0.0
2017-Oct-08 12:30N 19°12' W 096°08'0 0.0
2017-Oct-08 12:00N 19°12' W 096°08'0 0.0
2017-Oct-08 11:30N 19°12' W 096°08'0 0.0
2017-Oct-08 11:00N 19°12' W 096°08'0 0.0
2017-Oct-08 10:30N 19°12' W 096°08'0 0.0
2017-Oct-08 10:00N 19°12' W 096°08'0 0.0
2017-Oct-08 09:30N 19°12' W 096°08'0 0.0
2017-Oct-08 09:00N 19°12' W 096°08'0 0.0
2017-Oct-08 08:30N 19°12' W 096°08'0 0.0
2017-Oct-08 08:00N 19°12' W 096°08'0 0.0
2017-Oct-08 07:30N 19°12' W 096°08'0 0.0
2017-Oct-08 07:00N 19°12' W 096°08'0 0.0
2017-Oct-08 06:30N 19°12' W 096°08'0 0.0
2017-Oct-08 06:00N 19°12' W 096°08'0 0.0
2017-Oct-08 05:30N 19°12' W 096°08'0 0.0
2017-Oct-08 05:00N 19°12' W 096°08'0 0.0
2017-Oct-08 04:30N 19°12' W 096°08'0 0.0
2017-Oct-08 04:00N 19°12' W 096°08'0 0.0
2017-Oct-08 03:30N 19°12' W 096°08'0 0.0
2017-Oct-08 03:00N 19°12' W 096°08'0 0.0
2017-Oct-08 02:30N 19°12' W 096°08'0 0.0
2017-Oct-08 02:00N 19°12' W 096°08'0 0.0
2017-Oct-08 01:30N 19°12' W 096°08'0 0.0
2017-Oct-08 01:00N 19°12' W 096°08'0 0.0
2017-Oct-08 00:30N 19°12' W 096°08'0 0.0
2017-Oct-08 00:00N 19°12' W 096°08'0 0.0
2017-Oct-07 23:30N 19°12' W 096°08'0 0.0
2017-Oct-07 23:00N 19°12' W 096°08'0 0.0
2017-Oct-07 22:30N 19°12' W 096°08'0 0.0
2017-Oct-07 22:00N 19°12' W 096°08'0 0.0
2017-Oct-07 21:30N 19°12' W 096°08'0 0.0
2017-Oct-07 21:00N 19°12' W 096°08'0 0.0
2017-Oct-07 20:30N 19°12' W 096°08'0 0.0
2017-Oct-07 20:00N 19°12' W 096°08'0 0.0
2017-Oct-07 19:30N 19°12' W 096°08'0 0.0
2017-Oct-07 19:00N 19°12' W 096°08'0 0.0
2017-Oct-07 18:30N 19°12' W 096°08'0 0.0
2017-Oct-07 18:00N 19°12' W 096°08'0 0.0
2017-Oct-07 17:30N 19°12' W 096°08'0 0.0
2017-Oct-07 17:00N 19°12' W 096°08'0 0.0
2017-Oct-07 16:30N 19°12' W 096°08'0 0.0
2017-Oct-07 16:00N 19°12' W 096°08'0 0.0
2017-Oct-07 15:30N 19°12' W 096°08'0 0.0
2017-Oct-07 15:00N 19°12' W 096°08'0 0.0
2017-Oct-07 14:30N 19°12' W 096°08'0 0.0
2017-Oct-07 14:00N 19°12' W 096°08'0 0.0
2017-Oct-07 13:30N 19°12' W 096°08'0 0.0
2017-Oct-07 13:00N 19°12' W 096°08'0 0.0
2017-Oct-07 12:30N 19°12' W 096°08'0 0.0
2017-Oct-07 12:00N 19°12' W 096°08'0 0.0
2017-Oct-07 11:30N 19°12' W 096°08'0 0.0
2017-Oct-07 11:00N 19°12' W 096°08'0 0.0
2017-Oct-07 10:30N 19°12' W 096°08'0 0.0
2017-Oct-07 10:00N 19°12' W 096°08'0 0.0
2017-Oct-07 09:30N 19°12' W 096°08'0 0.0
2017-Oct-07 09:00N 19°12' W 096°08'0 0.0
2017-Oct-07 08:30N 19°12' W 096°08'0 0.0
2017-Oct-07 08:00N 19°12' W 096°08'0 0.0
2017-Oct-07 07:30N 19°12' W 096°08'0 0.0
2017-Oct-07 07:00N 19°12' W 096°08'0 0.0
2017-Oct-07 06:30N 19°12' W 096°08'0 0.0
2017-Oct-07 06:00N 19°12' W 096°08'0 0.0
2017-Oct-07 05:30N 19°12' W 096°08'0 0.0
2017-Oct-07 05:00N 19°12' W 096°08'0 0.0
2017-Oct-07 04:30N 19°12' W 096°08'0 0.0
2017-Oct-07 04:00N 19°12' W 096°08'0 0.0
2017-Oct-07 03:30N 19°12' W 096°08'0 0.0
2017-Oct-07 03:00N 19°12' W 096°08'0 0.0
2017-Oct-07 02:30N 19°12' W 096°08'0 0.0
2017-Oct-07 02:00N 19°12' W 096°08'0 0.0
2017-Oct-07 01:30N 19°12' W 096°08'0 0.0
2017-Oct-07 01:00N 19°12' W 096°08'0 0.0
2017-Oct-07 00:30N 19°12' W 096°08'0 0.0
2017-Oct-07 00:00N 19°12' W 096°08'0 0.0
2017-Oct-06 23:30N 19°12' W 096°08'0 0.0
2017-Oct-06 23:00N 19°12' W 096°08'0 0.0
2017-Oct-06 22:30N 19°12' W 096°08'0 0.0
2017-Oct-06 22:00N 19°12' W 096°08'0 0.0
2017-Oct-06 21:30N 19°12' W 096°08'0 0.0
2017-Oct-06 21:00N 19°12' W 096°08'0 0.0
2017-Oct-06 20:30N 19°12' W 096°08'0 0.0
2017-Oct-06 20:00N 19°12' W 096°08'0 0.0
2017-Oct-06 19:30N 19°12' W 096°08'0 0.0
2017-Oct-06 19:00N 19°12' W 096°08'0 0.0
2017-Oct-06 18:30N 19°12' W 096°08'0 0.0
2017-Oct-06 18:00N 19°12' W 096°08'0 0.0
2017-Oct-06 17:30N 19°12' W 096°08'0 0.0
2017-Oct-06 17:00N 19°12' W 096°08'0 0.0
2017-Oct-06 16:30N 19°12' W 096°08'0 0.0
2017-Oct-06 16:00N 19°12' W 096°08'0 0.0
2017-Oct-06 15:30N 19°12' W 096°08'0 0.0
2017-Oct-06 15:00N 19°12' W 096°08'0 0.0
2017-Oct-06 14:30N 19°12' W 096°08'0 0.0
2017-Oct-06 14:00N 19°12' W 096°08'0 0.0
2017-Oct-06 13:30N 19°12' W 096°08'0 0.0
2017-Oct-06 13:00N 19°12' W 096°08'0 0.0
2017-Oct-06 12:30N 19°12' W 096°08'0 0.0
2017-Oct-06 12:00N 19°12' W 096°08'0 0.0
2017-Oct-06 11:30N 19°12' W 096°08'0 0.0
2017-Oct-06 11:00N 19°12' W 096°08'0 0.0
2017-Oct-06 10:30N 19°12' W 096°08'0 0.0
2017-Oct-06 10:00N 19°12' W 096°08'0 0.0
2017-Oct-06 09:30N 19°12' W 096°08'0 0.0
2017-Oct-06 09:00N 19°12' W 096°08'0 0.0
2017-Oct-06 08:30N 19°12' W 096°08'0 0.0
2017-Oct-06 08:00N 19°12' W 096°08'0 0.0
2017-Oct-06 07:30N 19°12' W 096°08'0 0.0
2017-Oct-06 07:00N 19°12' W 096°08'0 0.0
2017-Oct-06 06:30N 19°12' W 096°08'0 0.0
2017-Oct-06 06:00N 19°12' W 096°08'0 0.0
2017-Oct-06 05:30N 19°12' W 096°08'0 0.0
2017-Oct-06 05:00N 19°12' W 096°08'0 0.0
2017-Oct-06 04:30N 19°12' W 096°08'0 0.0
2017-Oct-06 04:00N 19°12' W 096°08'0 0.0
2017-Oct-06 03:30N 19°12' W 096°08'0 0.0
2017-Oct-06 03:00N 19°12' W 096°08'0 0.0
2017-Oct-06 02:30N 19°12' W 096°08'0 0.0
2017-Oct-06 02:00N 19°12' W 096°08'0 0.0
2017-Oct-06 01:30N 19°12' W 096°08'0 0.0
2017-Oct-06 01:00N 19°12' W 096°08'0 0.0
2017-Oct-06 00:30N 19°12' W 096°08'0 0.0
2017-Oct-06 00:00N 19°12' W 096°08'0 0.0
2017-Oct-05 23:30N 19°12' W 096°08'0 0.0
2017-Oct-05 23:00N 19°12' W 096°08'0 0.0
2017-Oct-05 22:30N 19°12' W 096°08'0 0.0
2017-Oct-05 22:00N 19°12' W 096°08'0 0.0
2017-Oct-05 21:30N 19°12' W 096°08'0 0.0
2017-Oct-05 21:00N 19°12' W 096°08'0 0.0
2017-Oct-05 20:30N 19°12' W 096°08'0 0.0
2017-Oct-05 20:00N 19°12' W 096°08'0 0.0
2017-Oct-05 19:30N 19°12' W 096°08'0 0.0
2017-Oct-05 19:00N 19°12' W 096°08'0 0.0
2017-Oct-05 18:30N 19°12' W 096°08'0 0.0
2017-Oct-05 18:00N 19°12' W 096°08'0 0.0
2017-Oct-05 17:30N 19°12' W 096°08'0 0.0
2017-Oct-05 17:00N 19°12' W 096°08'  
Track history (hours):
 
Tides and Currents Weather Stations Pressure Air Temp Water Temp Dewpoint Dewpoint Depression Visibility Wind Speed Wind Dir Waves Ship Positions

SSV Iolair

Last reported at 2017-Oct-15 16:27 UTC. Time now 2017-Nov-18 19:41 UTC.
Position N 19°03' W 095°20'.
Warning: this ship's position is 34 days out of date.

Length 102 m; draft 7.5 m.

Type: Cargo ship. MMSI: 538002446.

Date/timePositionNaut miles runAvg speedWind from/ knotsBaromVisibWave heightAir tempDewpointWater temp
2017-Oct-15 16:27N 19°03' W 095°20'0 0.0
2017-Oct-15 15:57N 19°03' W 095°20'1 0.7
2017-Oct-15 14:55N 19°04' W 095°21'1 0.5
2017-Oct-15 13:54N 19°04' W 095°21'0 0.1
2017-Oct-15 13:29N 19°04' W 095°21'1 0.4
2017-Oct-15 11:22N 19°05' W 095°22'0 0.1
2017-Oct-15 10:58N 19°05' W 095°22'7 0.6
2017-Oct-14 23:17N 19°06' W 095°29'3 1.9
2017-Oct-14 21:44N 19°07' W 095°32'3 2.6
2017-Oct-14 20:46N 19°08' W 095°34'1 2.1
2017-Oct-14 20:25N 19°09' W 095°35'0 0.6
2017-Oct-14 20:00N 19°09' W 095°35'6 5.7
2017-Oct-14 19:01N 19°11' W 095°41'0 9.7
2017-Oct-14 19:00N 19°11' W 095°41'4 9.0
2017-Oct-14 18:30N 19°12' W 095°45'4 8.3
2017-Oct-14 18:00N 19°12' W 095°50'4 8.0
2017-Oct-14 17:30N 19°12' W 095°54'3 6.9
2017-Oct-14 17:00N 19°11' W 095°58'2 4.7
2017-Oct-14 16:30N 19°11' W 096°00'3 5.3
2017-Oct-14 16:00N 19°11' W 096°03'2 3.1
2017-Oct-14 15:30N 19°12' W 096°04'1 1.4
2017-Oct-14 15:00N 19°12' W 096°05'1 2.8
2017-Oct-14 14:30N 19°12' W 096°07'1 1.8
2017-Oct-14 14:00N 19°12' W 096°07'0 0.3
2017-Oct-14 13:30N 19°12' W 096°08'0 0.1
2017-Oct-14 13:00N 19°12' W 096°08'0 0.0
2017-Oct-14 12:30N 19°12' W 096°08'0 0.0
2017-Oct-14 12:00N 19°12' W 096°08'0 0.0
2017-Oct-14 11:30N 19°12' W 096°08'0 0.0
2017-Oct-14 11:00N 19°12' W 096°08'0 0.0
2017-Oct-14 10:30N 19°12' W 096°08'0 0.0
2017-Oct-14 10:00N 19°12' W 096°08'0 0.0
2017-Oct-14 09:30N 19°12' W 096°08'0 0.0
2017-Oct-14 09:00N 19°12' W 096°08'0 0.0
2017-Oct-14 08:30N 19°12' W 096°08'0 0.0
2017-Oct-14 08:00N 19°12' W 096°08'0 0.0
2017-Oct-14 07:30N 19°12' W 096°08'0 0.0
2017-Oct-14 07:00N 19°12' W 096°08'0 0.0
2017-Oct-14 06:30N 19°12' W 096°08'0 0.0
2017-Oct-14 06:00N 19°12' W 096°08'0 0.0
2017-Oct-14 05:30N 19°12' W 096°08'0 0.0
2017-Oct-14 05:00N 19°12' W 096°08'0 0.0
2017-Oct-14 04:30N 19°12' W 096°08'0 0.0
2017-Oct-14 04:00N 19°12' W 096°08'0 0.0
2017-Oct-14 03:30N 19°12' W 096°08'0 0.0
2017-Oct-14 03:00N 19°12' W 096°08'0 0.0
2017-Oct-14 02:30N 19°12' W 096°08'0 0.0
2017-Oct-14 02:00N 19°12' W 096°08'0 0.0
2017-Oct-14 01:30N 19°12' W 096°08'0 0.0
2017-Oct-14 01:00N 19°12' W 096°08'0 0.0
2017-Oct-14 00:30N 19°12' W 096°08'0 0.0
2017-Oct-14 00:00N 19°12' W 096°08'0 0.0
2017-Oct-13 23:30N 19°12' W 096°08'0 0.0
2017-Oct-13 23:00N 19°12' W 096°08'0 0.0
2017-Oct-13 22:30N 19°12' W 096°08'0 0.0
2017-Oct-13 22:00N 19°12' W 096°08'0 0.0
2017-Oct-13 21:30N 19°12' W 096°08'0 0.0
2017-Oct-13 21:00N 19°12' W 096°08'0 0.0
2017-Oct-13 20:30N 19°12' W 096°08'0 0.0
2017-Oct-13 20:00N 19°12' W 096°08'0 0.0
2017-Oct-13 19:30N 19°12' W 096°08'0 0.0
2017-Oct-13 19:00N 19°12' W 096°08'0 0.0
2017-Oct-13 18:30N 19°12' W 096°08'0 0.0
2017-Oct-13 18:00N 19°12' W 096°08'0 0.0
2017-Oct-13 17:30N 19°12' W 096°08'0 0.0
2017-Oct-13 17:00N 19°12' W 096°08'0 0.0
2017-Oct-13 16:30N 19°12' W 096°08'0 0.0
2017-Oct-13 16:00N 19°12' W 096°08'0 0.0
2017-Oct-13 15:30N 19°12' W 096°08'0 0.0
2017-Oct-13 15:00N 19°12' W 096°08'0 0.0
2017-Oct-13 14:30N 19°12' W 096°08'0 0.0
2017-Oct-13 14:00N 19°12' W 096°08'0 0.0
2017-Oct-13 13:30N 19°12' W 096°08'0 0.0
2017-Oct-13 13:00N 19°12' W 096°08'0 0.0
2017-Oct-13 12:30N 19°12' W 096°08'0 0.0
2017-Oct-13 12:00N 19°12' W 096°08'0 0.0
2017-Oct-13 11:30N 19°12' W 096°08'0 0.0
2017-Oct-13 11:00N 19°12' W 096°08'0 0.0
2017-Oct-13 10:30N 19°12' W 096°08'0 0.0
2017-Oct-13 10:00N 19°12' W 096°08'0 0.0
2017-Oct-13 09:30N 19°12' W 096°08'0 0.0
2017-Oct-13 09:00N 19°12' W 096°08'0 0.0
2017-Oct-13 08:30N 19°12' W 096°08'0 0.0
2017-Oct-13 08:00N 19°12' W 096°08'0 0.0
2017-Oct-13 07:30N 19°12' W 096°08'0 0.0
2017-Oct-13 07:00N 19°12' W 096°08'0 0.0
2017-Oct-13 06:30N 19°12' W 096°08'0 0.0
2017-Oct-13 06:00N 19°12' W 096°08'0 0.0
2017-Oct-13 05:30N 19°12' W 096°08'0 0.0
2017-Oct-13 05:00N 19°12' W 096°08'0 0.0
2017-Oct-13 04:30N 19°12' W 096°08'0 0.0
2017-Oct-13 04:00N 19°12' W 096°08'0 0.0
2017-Oct-13 03:30N 19°12' W 096°08'0 0.0
2017-Oct-13 03:00N 19°12' W 096°08'0 0.0
2017-Oct-13 02:30N 19°12' W 096°08'0 0.0
2017-Oct-13 02:00N 19°12' W 096°08'0 0.0
2017-Oct-13 01:30N 19°12' W 096°08'0 0.0
2017-Oct-13 01:00N 19°12' W 096°08'0 0.0
2017-Oct-13 00:30N 19°12' W 096°08'0 0.0
2017-Oct-13 00:00N 19°12' W 096°08'0 0.0
2017-Oct-12 23:30N 19°12' W 096°08'0 0.0
2017-Oct-12 23:00N 19°12' W 096°08'0 0.0
2017-Oct-12 22:30N 19°12' W 096°08'0 0.0
2017-Oct-12 22:00N 19°12' W 096°08'0 0.0
2017-Oct-12 21:30N 19°12' W 096°08'0 0.0
2017-Oct-12 21:00N 19°12' W 096°08'0 0.0
2017-Oct-12 20:30N 19°12' W 096°08'0 0.0
2017-Oct-12 20:00N 19°12' W 096°08'0 0.0
2017-Oct-12 19:30N 19°12' W 096°08'0 0.0
2017-Oct-12 19:00N 19°12' W 096°08'0 0.0
2017-Oct-12 18:30N 19°12' W 096°08'0 0.0
2017-Oct-12 18:00N 19°12' W 096°08'0 0.0
2017-Oct-12 17:30N 19°12' W 096°08'0 0.0
2017-Oct-12 17:00N 19°12' W 096°08'0 0.0
2017-Oct-12 16:30N 19°12' W 096°08'0 0.0
2017-Oct-12 16:00N 19°12' W 096°08'0 0.0
2017-Oct-12 15:30N 19°12' W 096°08'0 0.0
2017-Oct-12 15:00N 19°12' W 096°08'0 0.0
2017-Oct-12 14:30N 19°12' W 096°08'0 0.0
2017-Oct-12 14:00N 19°12' W 096°08'0 0.0
2017-Oct-12 13:30N 19°12' W 096°08'0 0.0
2017-Oct-12 13:00N 19°12' W 096°08'0 0.0
2017-Oct-12 12:30N 19°12' W 096°08'0 0.0
2017-Oct-12 12:00N 19°12' W 096°08'0 0.0
2017-Oct-12 11:30N 19°12' W 096°08'0 0.0
2017-Oct-12 11:00N 19°12' W 096°08'0 0.0
2017-Oct-12 10:30N 19°12' W 096°08'0 0.0
2017-Oct-12 10:00N 19°12' W 096°08'0 0.0
2017-Oct-12 09:30N 19°12' W 096°08'0 0.0
2017-Oct-12 09:00N 19°12' W 096°08'0 0.0
2017-Oct-12 08:30N 19°12' W 096°08'0 0.0
2017-Oct-12 08:00N 19°12' W 096°08'0 0.0
2017-Oct-12 07:30N 19°12' W 096°08'0 0.0
2017-Oct-12 07:00N 19°12' W 096°08'0 0.0
2017-Oct-12 06:30N 19°12' W 096°08'0 0.0
2017-Oct-12 06:00N 19°12' W 096°08'0 0.0
2017-Oct-12 05:30N 19°12' W 096°08'0 0.0
2017-Oct-12 05:00N 19°12' W 096°08'0 0.0
2017-Oct-12 04:30N 19°12' W 096°08'0 0.0
2017-Oct-12 04:00N 19°12' W 096°08'0 0.0
2017-Oct-12 03:30N 19°12' W 096°08'0 0.0
2017-Oct-12 03:00N 19°12' W 096°08'0 0.0
2017-Oct-12 02:30N 19°12' W 096°08'0 0.0
2017-Oct-12 02:00N 19°12' W 096°08'0 0.0
2017-Oct-12 01:30N 19°12' W 096°08'0 0.0
2017-Oct-12 01:00N 19°12' W 096°08'0 0.0
2017-Oct-12 00:30N 19°12' W 096°08'0 0.0
2017-Oct-12 00:00N 19°12' W 096°08'0 0.0
2017-Oct-11 23:30N 19°12' W 096°08'0 0.0
2017-Oct-11 23:00N 19°12' W 096°08'0 0.0
2017-Oct-11 22:30N 19°12' W 096°08'0 0.0
2017-Oct-11 22:00N 19°12' W 096°08'0 0.0
2017-Oct-11 21:30N 19°12' W 096°08'0 0.0
2017-Oct-11 21:00N 19°12' W 096°08'0 0.0
2017-Oct-11 20:30N 19°12' W 096°08'0 0.0
2017-Oct-11 20:00N 19°12' W 096°08'0 0.0
2017-Oct-11 19:30N 19°12' W 096°08'0 0.0
2017-Oct-11 19:00N 19°12' W 096°08'0 0.0
2017-Oct-11 18:30N 19°12' W 096°08'0 0.0
2017-Oct-11 18:00N 19°12' W 096°08'0 0.0
2017-Oct-11 17:30N 19°12' W 096°08'0 0.0
2017-Oct-11 17:00N 19°12' W 096°08'0 0.0
2017-Oct-11 00:00N 19°12' W 096°08'0 0.0
2017-Oct-10 23:30N 19°12' W 096°08'0 0.0
2017-Oct-10 23:00N 19°12' W 096°08'0 0.0
2017-Oct-10 22:30N 19°12' W 096°08'0 0.0
2017-Oct-10 22:00N 19°12' W 096°08'0 0.0
2017-Oct-10 21:30N 19°12' W 096°08'0 0.0
2017-Oct-10 21:00N 19°12' W 096°08'0 0.0
2017-Oct-10 20:30N 19°12' W 096°08'0 0.0
2017-Oct-10 20:00N 19°12' W 096°08'0 0.0
2017-Oct-10 19:30N 19°12' W 096°08'0 0.0
2017-Oct-10 19:00N 19°12' W 096°08'0 0.0
2017-Oct-10 18:30N 19°12' W 096°08'0 0.0
2017-Oct-10 18:00N 19°12' W 096°08'0 0.0
2017-Oct-10 17:30N 19°12' W 096°08'0 0.0
2017-Oct-10 17:00N 19°12' W 096°08'0 0.0
2017-Oct-10 16:30N 19°12' W 096°08'0 0.0
2017-Oct-10 16:00N 19°12' W 096°08'0 0.0
2017-Oct-10 15:30N 19°12' W 096°08'0 0.0
2017-Oct-10 15:00N 19°12' W 096°08'0 0.0
2017-Oct-10 14:00N 19°12' W 096°08'0 0.0
2017-Oct-10 13:30N 19°12' W 096°08'0 0.0
2017-Oct-10 13:00N 19°12' W 096°08'0 0.0
2017-Oct-10 12:30N 19°12' W 096°08'0 0.0
2017-Oct-10 12:00N 19°12' W 096°08'0 0.0
2017-Oct-10 11:30N 19°12' W 096°08'0 0.0
2017-Oct-10 11:00N 19°12' W 096°08'0 0.0
2017-Oct-10 10:30N 19°12' W 096°08'0 0.0
2017-Oct-10 10:00N 19°12' W 096°08'0 0.0
2017-Oct-10 09:30N 19°12' W 096°08'0 0.0
2017-Oct-10 09:00N 19°12' W 096°08'0 0.0
2017-Oct-10 08:30N 19°12' W 096°08'0 0.0
2017-Oct-10 08:00N 19°12' W 096°08'0 0.0
2017-Oct-10 07:30N 19°12' W 096°08'0 0.0
2017-Oct-10 07:00N 19°12' W 096°08'0 0.0
2017-Oct-10 06:30N 19°12' W 096°08'0 0.0
2017-Oct-10 06:00N 19°12' W 096°08'0 0.0
2017-Oct-10 05:30N 19°12' W 096°08'0 0.0
2017-Oct-10 05:00N 19°12' W 096°08'0 0.0
2017-Oct-10 04:30N 19°12' W 096°08'0 0.0
2017-Oct-10 04:00N 19°12' W 096°08'0 0.0
2017-Oct-10 03:30N 19°12' W 096°08'0 0.0
2017-Oct-10 03:00N 19°12' W 096°08'0 0.0
2017-Oct-10 02:30N 19°12' W 096°08'0 0.0
2017-Oct-10 02:00N 19°12' W 096°08'0 0.0
2017-Oct-10 01:30N 19°12' W 096°08'0 0.0
2017-Oct-10 01:00N 19°12' W 096°08'0 0.0
2017-Oct-10 00:30N 19°12' W 096°08'0 0.0
2017-Oct-10 00:00N 19°12' W 096°08'0 0.0
2017-Oct-09 23:30N 19°12' W 096°08'0 0.0
2017-Oct-09 23:00N 19°12' W 096°08'0 0.0
2017-Oct-09 22:30N 19°12' W 096°08'0 0.0
2017-Oct-09 22:00N 19°12' W 096°08'0 0.0
2017-Oct-09 21:30N 19°12' W 096°08'0 0.0
2017-Oct-09 21:00N 19°12' W 096°08'0 0.0
2017-Oct-09 20:30N 19°12' W 096°08'0 0.0
2017-Oct-09 20:00N 19°12' W 096°08'0 0.0
2017-Oct-09 19:30N 19°12' W 096°08'0 0.0
2017-Oct-09 19:00N 19°12' W 096°08'0 0.0
2017-Oct-09 18:30N 19°12' W 096°08'0 0.0
2017-Oct-09 18:00N 19°12' W 096°08'0 0.0
2017-Oct-09 17:30N 19°12' W 096°08'0 0.0
2017-Oct-09 17:00N 19°12' W 096°08'0 0.0
2017-Oct-09 16:30N 19°12' W 096°08'0 0.0
2017-Oct-09 16:00N 19°12' W 096°08'0 0.0
2017-Oct-09 15:30N 19°12' W 096°08'0 0.0
2017-Oct-09 15:00N 19°12' W 096°08'0 0.0
2017-Oct-09 14:30N 19°12' W 096°08'0 0.0
2017-Oct-09 14:00N 19°12' W 096°08'0 0.0
2017-Oct-09 13:30N 19°12' W 096°08'0 0.0
2017-Oct-09 13:00N 19°12' W 096°08'0 0.0
2017-Oct-09 12:30N 19°12' W 096°08'0 0.0
2017-Oct-09 12:00N 19°12' W 096°08'0 0.0
2017-Oct-09 11:30N 19°12' W 096°08'0 0.0
2017-Oct-09 11:00N 19°12' W 096°08'0 0.0
2017-Oct-09 10:30N 19°12' W 096°08'0 0.0
2017-Oct-09 10:00N 19°12' W 096°08'0 0.0
2017-Oct-09 09:30N 19°12' W 096°08'0 0.0
2017-Oct-09 09:00N 19°12' W 096°08'0 0.0
2017-Oct-09 08:30N 19°12' W 096°08'0 0.0
2017-Oct-09 08:00N 19°12' W 096°08'0 0.0
2017-Oct-09 07:30N 19°12' W 096°08'0 0.0
2017-Oct-09 07:00N 19°12' W 096°08'0 0.0
2017-Oct-09 06:30N 19°12' W 096°08'0 0.0
2017-Oct-09 06:00N 19°12' W 096°08'0 0.0
2017-Oct-09 05:30N 19°12' W 096°08'0 0.0
2017-Oct-09 05:00N 19°12' W 096°08'0 0.0
2017-Oct-09 04:30N 19°12' W 096°08'0 0.0
2017-Oct-09 04:00N 19°12' W 096°08'0 0.0
2017-Oct-09 03:30N 19°12' W 096°08'0 0.0
2017-Oct-09 03:00N 19°12' W 096°08'0 0.0
2017-Oct-09 02:30N 19°12' W 096°08'0 0.0
2017-Oct-09 02:00N 19°12' W 096°08'0 0.0
2017-Oct-09 01:30N 19°12' W 096°08'0 0.0
2017-Oct-09 01:00N 19°12' W 096°08'0 0.0
2017-Oct-09 00:30N 19°12' W 096°08'0 0.0
2017-Oct-09 00:00N 19°12' W 096°08'0 0.0
2017-Oct-08 23:30N 19°12' W 096°08'0 0.0
2017-Oct-08 23:00N 19°12' W 096°08'0 0.0
2017-Oct-08 22:30N 19°12' W 096°08'0 0.0
2017-Oct-08 22:00N 19°12' W 096°08'0 0.0
2017-Oct-08 21:30N 19°12' W 096°08'0 0.0
2017-Oct-08 21:00N 19°12' W 096°08'0 0.0
2017-Oct-08 20:30N 19°12' W 096°08'0 0.0
2017-Oct-08 20:00N 19°12' W 096°08'0 0.0
2017-Oct-08 19:30N 19°12' W 096°08'0 0.0
2017-Oct-08 19:00N 19°12' W 096°08'0 0.0
2017-Oct-08 18:30N 19°12' W 096°08'0 0.0
2017-Oct-08 18:00N 19°12' W 096°08'0 0.0
2017-Oct-08 17:30N 19°12' W 096°08'0 0.0
2017-Oct-08 17:00N 19°12' W 096°08'0 0.0
2017-Oct-08 16:30N 19°12' W 096°08'0 0.0
2017-Oct-08 16:00N 19°12' W 096°08'0 0.0
2017-Oct-08 15:30N 19°12' W 096°08'0 0.0
2017-Oct-08 15:00N 19°12' W 096°08'0 0.0
2017-Oct-08 14:30N 19°12' W 096°08'0 0.0
2017-Oct-08 14:00N 19°12' W 096°08'0 0.0
2017-Oct-08 13:30N 19°12' W 096°08'0 0.0
2017-Oct-08 13:00N 19°12' W 096°08'0 0.0
2017-Oct-08 12:30N 19°12' W 096°08'0 0.0
2017-Oct-08 12:00N 19°12' W 096°08'0 0.0
2017-Oct-08 11:30N 19°12' W 096°08'0 0.0
2017-Oct-08 11:00N 19°12' W 096°08'0 0.0
2017-Oct-08 10:30N 19°12' W 096°08'0 0.0
2017-Oct-08 10:00N 19°12' W 096°08'0 0.0
2017-Oct-08 09:30N 19°12' W 096°08'0 0.0
2017-Oct-08 09:00N 19°12' W 096°08'0 0.0
2017-Oct-08 08:30N 19°12' W 096°08'0 0.0
2017-Oct-08 08:00N 19°12' W 096°08'0 0.0
2017-Oct-08 07:30N 19°12' W 096°08'0 0.0
2017-Oct-08 07:00N 19°12' W 096°08'0 0.0
2017-Oct-08 06:30N 19°12' W 096°08'0 0.0
2017-Oct-08 06:00N 19°12' W 096°08'0 0.0
2017-Oct-08 05:30N 19°12' W 096°08'0 0.0
2017-Oct-08 05:00N 19°12' W 096°08'0 0.0
2017-Oct-08 04:30N 19°12' W 096°08'0 0.0
2017-Oct-08 04:00N 19°12' W 096°08'0 0.0
2017-Oct-08 03:30N 19°12' W 096°08'0 0.0
2017-Oct-08 03:00N 19°12' W 096°08'0 0.0
2017-Oct-08 02:30N 19°12' W 096°08'0 0.0
2017-Oct-08 02:00N 19°12' W 096°08'0 0.0
2017-Oct-08 01:30N 19°12' W 096°08'0 0.0
2017-Oct-08 01:00N 19°12' W 096°08'0 0.0
2017-Oct-08 00:30N 19°12' W 096°08'0 0.0
2017-Oct-08 00:00N 19°12' W 096°08'0 0.0
2017-Oct-07 23:30N 19°12' W 096°08'0 0.0
2017-Oct-07 23:00N 19°12' W 096°08'0 0.0
2017-Oct-07 22:30N 19°12' W 096°08'0 0.0
2017-Oct-07 22:00N 19°12' W 096°08'0 0.0
2017-Oct-07 21:30N 19°12' W 096°08'0 0.0
2017-Oct-07 21:00N 19°12' W 096°08'0 0.0
2017-Oct-07 20:30N 19°12' W 096°08'0 0.0
2017-Oct-07 20:00N 19°12' W 096°08'0 0.0
2017-Oct-07 19:30N 19°12' W 096°08'0 0.0
2017-Oct-07 19:00N 19°12' W 096°08'0 0.0
2017-Oct-07 18:30N 19°12' W 096°08'0 0.0
2017-Oct-07 18:00N 19°12' W 096°08'0 0.0
2017-Oct-07 17:30N 19°12' W 096°08'0 0.0
2017-Oct-07 17:00N 19°12' W 096°08'0 0.0
2017-Oct-07 16:30N 19°12' W 096°08'0 0.0
2017-Oct-07 16:00N 19°12' W 096°08'0 0.0
2017-Oct-07 15:30N 19°12' W 096°08'0 0.0
2017-Oct-07 15:00N 19°12' W 096°08'0 0.0
2017-Oct-07 14:30N 19°12' W 096°08'0 0.0
2017-Oct-07 14:00N 19°12' W 096°08'0 0.0
2017-Oct-07 13:30N 19°12' W 096°08'0 0.0
2017-Oct-07 13:00N 19°12' W 096°08'0 0.0
2017-Oct-07 12:30N 19°12' W 096°08'0 0.0
2017-Oct-07 12:00N 19°12' W 096°08'0 0.0
2017-Oct-07 11:30N 19°12' W 096°08'0 0.0
2017-Oct-07 11:00N 19°12' W 096°08'0 0.0
2017-Oct-07 10:30N 19°12' W 096°08'0 0.0
2017-Oct-07 10:00N 19°12' W 096°08'0 0.0
2017-Oct-07 09:30N 19°12' W 096°08'0 0.0
2017-Oct-07 09:00N 19°12' W 096°08'0 0.0
2017-Oct-07 08:30N 19°12' W 096°08'0 0.0
2017-Oct-07 08:00N 19°12' W 096°08'0 0.0
2017-Oct-07 07:30N 19°12' W 096°08'0 0.0
2017-Oct-07 07:00N 19°12' W 096°08'0 0.0
2017-Oct-07 06:30N 19°12' W 096°08'0 0.0
2017-Oct-07 06:00N 19°12' W 096°08'0 0.0
2017-Oct-07 05:30N 19°12' W 096°08'0 0.0
2017-Oct-07 05:00N 19°12' W 096°08'0 0.0
2017-Oct-07 04:30N 19°12' W 096°08'0 0.0
2017-Oct-07 04:00N 19°12' W 096°08'0 0.0
2017-Oct-07 03:30N 19°12' W 096°08'0 0.0
2017-Oct-07 03:00N 19°12' W 096°08'0 0.0
2017-Oct-07 02:30N 19°12' W 096°08'0 0.0
2017-Oct-07 02:00N 19°12' W 096°08'0 0.0
2017-Oct-07 01:30N 19°12' W 096°08'0 0.0
2017-Oct-07 01:00N 19°12' W 096°08'0 0.0
2017-Oct-07 00:30N 19°12' W 096°08'0 0.0
2017-Oct-07 00:00N 19°12' W 096°08'0 0.0
2017-Oct-06 23:30N 19°12' W 096°08'0 0.0
2017-Oct-06 23:00N 19°12' W 096°08'0 0.0
2017-Oct-06 22:30N 19°12' W 096°08'0 0.0
2017-Oct-06 22:00N 19°12' W 096°08'0 0.0
2017-Oct-06 21:30N 19°12' W 096°08'0 0.0
2017-Oct-06 21:00N 19°12' W 096°08'0 0.0
2017-Oct-06 20:30N 19°12' W 096°08'0 0.0
2017-Oct-06 20:00N 19°12' W 096°08'0 0.0
2017-Oct-06 19:30N 19°12' W 096°08'0 0.0
2017-Oct-06 19:00N 19°12' W 096°08'0 0.0
2017-Oct-06 18:30N 19°12' W 096°08'0 0.0
2017-Oct-06 18:00N 19°12' W 096°08'0 0.0
2017-Oct-06 17:30N 19°12' W 096°08'0 0.0
2017-Oct-06 17:00N 19°12' W 096°08'0 0.0
2017-Oct-06 16:30N 19°12' W 096°08'0 0.0
2017-Oct-06 16:00N 19°12' W 096°08'0 0.0
2017-Oct-06 15:30N 19°12' W 096°08'0 0.0
2017-Oct-06 15:00N 19°12' W 096°08'0 0.0
2017-Oct-06 14:30N 19°12' W 096°08'0 0.0
2017-Oct-06 14:00N 19°12' W 096°08'0 0.0
2017-Oct-06 13:30N 19°12' W 096°08'0 0.0
2017-Oct-06 13:00N 19°12' W 096°08'0 0.0
2017-Oct-06 12:30N 19°12' W 096°08'0 0.0
2017-Oct-06 12:00N 19°12' W 096°08'0 0.0
2017-Oct-06 11:30N 19°12' W 096°08'0 0.0
2017-Oct-06 11:00N 19°12' W 096°08'0 0.0
2017-Oct-06 10:30N 19°12' W 096°08'0 0.0
2017-Oct-06 10:00N 19°12' W 096°08'0 0.0
2017-Oct-06 09:30N 19°12' W 096°08'0 0.0
2017-Oct-06 09:00N 19°12' W 096°08'0 0.0
2017-Oct-06 08:30N 19°12' W 096°08'0 0.0
2017-Oct-06 08:00N 19°12' W 096°08'0 0.0
2017-Oct-06 07:30N 19°12' W 096°08'0 0.0
2017-Oct-06 07:00N 19°12' W 096°08'0 0.0
2017-Oct-06 06:30N 19°12' W 096°08'0 0.0
2017-Oct-06 06:00N 19°12' W 096°08'0 0.0
2017-Oct-06 05:30N 19°12' W 096°08'0 0.0
2017-Oct-06 05:00N 19°12' W 096°08'0 0.0
2017-Oct-06 04:30N 19°12' W 096°08'0 0.0
2017-Oct-06 04:00N 19°12' W 096°08'0 0.0
2017-Oct-06 03:30N 19°12' W 096°08'0 0.0
2017-Oct-06 03:00N 19°12' W 096°08'0 0.0
2017-Oct-06 02:30N 19°12' W 096°08'0 0.0
2017-Oct-06 02:00N 19°12' W 096°08'0 0.0
2017-Oct-06 01:30N 19°12' W 096°08'0 0.0
2017-Oct-06 01:00N 19°12' W 096°08'0 0.0
2017-Oct-06 00:30N 19°12' W 096°08'0 0.0
2017-Oct-06 00:00N 19°12' W 096°08'0 0.0
2017-Oct-05 23:30N 19°12' W 096°08'0 0.0
2017-Oct-05 23:00N 19°12' W 096°08'0 0.0
2017-Oct-05 22:30N 19°12' W 096°08'0 0.0
2017-Oct-05 22:00N 19°12' W 096°08'0 0.0
2017-Oct-05 21:30N 19°12' W 096°08'0 0.0
2017-Oct-05 21:00N 19°12' W 096°08'0 0.0
2017-Oct-05 20:30N 19°12' W 096°08'0 0.0
2017-Oct-05 20:00N 19°12' W 096°08'0 0.0
2017-Oct-05 19:30N 19°12' W 096°08'0 0.0
2017-Oct-05 19:00N 19°12' W 096°08'0 0.0
2017-Oct-05 18:30N 19°12' W 096°08'0 0.0
2017-Oct-05 18:00N 19°12' W 096°08'0 0.0
2017-Oct-05 17:30N 19°12' W 096°08'0 0.0
2017-Oct-05 17:00N 19°12' W 096°08'  

Dump ship's entire track history